Terminal Aerodrome Forecast
Issued by NWS Sioux Falls, SD

Home | Current Version | Previous Version | Graphics & Text | Print | Product List | Glossary On
Versions: 1 2 3 4 5 6 7 8 9 10 11 12 13 14 15 16
145
FTUS43 KFSD 231723
TAFFSD
TAF
KFSD 231723Z 2318/2418 05016G24KT P6SM OVC015
     FM232200 05019G28KT 6SM -SN OVC015
     FM240000 05020G30KT 2SM -SN BLSN OVC015
     FM240100 05021G31KT 1 1/2SM -SN BLSN OVC015
     FM241200 01021G31KT 2SM -SN BLSN OVC025
     FM241300 01021G31KT 3SM -SN BLSN OVC025
     FM241700 36021G29KT 6SM -SN BLSN OVC080=

USA.gov is the U.S. government's official web portal to all federal, state and local government web resources and services.